Time;durP1;ratioP1;P1;durP2;ratioP2;P2;SDS_P1;SDS_P2;PMS_P1;PMS_P2;Temp;Humidity;BMP_temperature;BMP_pressure;BME280_temperature;BME280_humidity;BME280_pressure;Samples;Min_cycle;Max_cycle;Signal;HPM_P1;HPM_P2
2021/07/11 00:00:54;;;;;;;12.63;11.63;;;18.10;99.90;;;;;;5011731;28;20198;-65
2021/07/11 00:03:19;;;;;;;12.50;11.30;;;18.10;99.90;;;;;;5012419;28;20181;-65
2021/07/11 00:05:47;;;;;;;12.80;11.70;;;18.10;99.90;;;;;;5014116;28;20616;-65
2021/07/11 00:08:20;;;;;;;12.80;11.77;;;18.10;99.90;;;;;;5025978;28;20607;-66
2021/07/11 00:10:49;;;;;;;12.17;11.20;;;18.10;99.90;;;;;;5014274;28;20630;-65
2021/07/11 00:13:15;;;;;;;12.97;11.97;;;18.10;99.90;;;;;;5010633;28;20772;-65
2021/07/11 00:15:47;;;;;;;13.03;11.83;;;18.00;99.90;;;;;;5031692;28;21089;-65
2021/07/11 00:18:13;;;;;;;12.70;11.70;;;18.00;99.90;;;;;;5031256;28;20180;-66
2021/07/11 00:20:41;;;;;;;12.30;11.20;;;17.90;99.90;;;;;;5014457;28;20642;-65
2021/07/11 00:23:07;;;;;;;11.80;10.83;;;18.00;99.90;;;;;;5027314;28;20611;-66
2021/07/11 00:25:32;;;;;;;12.83;11.27;;;17.90;99.90;;;;;;5021357;28;20596;-66
2021/07/11 00:28:01;;;;;;;11.80;10.90;;;17.80;99.90;;;;;;5010217;28;20204;-65
2021/07/11 00:30:29;;;;;;;13.20;12.17;;;17.80;99.90;;;;;;5011609;28;20638;-66
2021/07/11 00:33:04;;;;;;;12.57;11.50;;;17.80;99.90;;;;;;4994147;28;20631;-67
2021/07/11 00:35:32;;;;;;;12.73;11.53;;;17.70;99.90;;;;;;5011737;28;20584;-65
2021/07/11 00:37:59;;;;;;;13.03;11.83;;;17.80;99.90;;;;;;5003261;28;20632;-66
2021/07/11 00:40:25;;;;;;;12.87;11.57;;;17.70;99.90;;;;;;5026617;28;20709;-66
2021/07/11 00:42:50;;;;;;;11.90;10.90;;;17.70;99.90;;;;;;5032708;28;21143;-66
2021/07/11 00:45:18;;;;;;;12.07;10.87;;;17.70;99.90;;;;;;5033287;28;20184;-66
2021/07/11 00:47:44;;;;;;;12.13;11.13;;;17.70;99.90;;;;;;5029146;28;20213;-66
2021/07/11 00:50:20;;;;;;;12.90;11.70;;;17.70;99.90;;;;;;5000830;28;20663;-66
2021/07/11 00:52:46;;;;;;;12.17;11.17;;;17.70;99.90;;;;;;5027545;28;20728;-66
2021/07/11 00:55:14;;;;;;;12.67;11.57;;;17.60;99.90;;;;;;5015182;28;20727;-66
2021/07/11 00:57:45;;;;;;;11.60;10.50;;;17.60;99.90;;;;;;5024142;28;20277;-65
2021/07/11 01:00:14;;;;;;;13.17;12.07;;;17.50;99.90;;;;;;5032973;28;21170;-66
2021/07/11 01:03:09;;;;;;;12.33;11.33;;;17.50;99.90;;;;;;5032891;28;21159;-66
2021/07/11 01:05:38;;;;;;;13.17;11.97;;;17.50;99.90;;;;;;5003327;28;20679;-65
2021/07/11 01:08:10;;;;;;;12.43;11.43;;;17.50;99.90;;;;;;5012807;28;20580;-66
2021/07/11 01:10:44;;;;;;;12.40;11.40;;;17.50;99.90;;;;;;5012948;28;20667;-66
2021/07/11 01:13:15;;;;;;;11.73;10.80;;;17.50;99.90;;;;;;5017285;28;21010;-65
2021/07/11 01:15:46;;;;;;;12.03;11.00;;;17.50;99.90;;;;;;5005933;28;21102;-66
2021/07/11 01:18:16;;;;;;;12.47;11.37;;;17.40;99.90;;;;;;5005274;28;21028;-65
2021/07/11 01:20:47;;;;;;;11.77;10.77;;;17.40;99.90;;;;;;5014765;28;20654;-67
2021/07/11 01:23:51;;;;;;;11.60;10.70;;;17.40;99.90;;;;;;5030096;28;20654;-67
2021/07/11 01:26:21;;;;;;;11.30;10.40;;;17.40;99.90;;;;;;5028054;28;20595;-65
2021/07/11 01:28:51;;;;;;;12.20;11.20;;;17.40;99.90;;;;;;5023246;28;20603;-67
2021/07/11 01:31:19;;;;;;;11.00;10.10;;;17.30;99.90;;;;;;5016570;28;21128;-65
2021/07/11 01:33:48;;;;;;;11.83;10.83;;;17.30;99.90;;;;;;5028868;28;20588;-64
2021/07/11 01:36:16;;;;;;;10.70;9.80;;;17.40;99.90;;;;;;5029676;28;20654;-65
2021/07/11 01:38:45;;;;;;;11.83;10.83;;;17.30;99.90;;;;;;5022363;28;20708;-66
2021/07/11 01:41:14;;;;;;;11.30;10.43;;;17.30;99.90;;;;;;5010447;28;20608;-66
2021/07/11 01:43:45;;;;;;;11.27;10.37;;;17.30;99.90;;;;;;5010883;28;20957;-66
2021/07/11 01:46:11;;;;;;;11.73;10.80;;;17.40;99.90;;;;;;5010584;28;20561;-66
2021/07/11 01:48:40;;;;;;;11.20;10.10;;;17.30;99.90;;;;;;5011172;28;21047;-66
2021/07/11 01:51:09;;;;;;;11.40;10.50;;;17.30;99.90;;;;;;5029791;28;20647;-65
2021/07/11 01:53:39;;;;;;;11.97;11.00;;;17.30;99.90;;;;;;5030155;28;20595;-66
2021/07/11 01:56:09;;;;;;;10.63;9.73;;;17.30;99.90;;;;;;5025745;28;20695;-65
2021/07/11 01:58:35;;;;;;;11.20;10.30;;;17.20;99.90;;;;;;5010545;28;20595;-65
2021/07/11 02:01:06;;;;;;;11.50;10.60;;;17.20;99.90;;;;;;5010039;28;20608;-65
2021/07/11 02:03:32;;;;;;;10.83;9.93;;;17.20;99.90;;;;;;4992550;28;20592;-65
2021/07/11 02:05:58;;;;;;;11.40;10.50;;;17.20;99.90;;;;;;5024382;28;20693;-65
2021/07/11 02:08:23;;;;;;;11.37;10.47;;;17.20;99.90;;;;;;5010061;28;20598;-65
2021/07/11 02:10:53;;;;;;;10.93;9.93;;;17.20;99.90;;;;;;4992348;28;20201;-66
2021/07/11 02:13:43;;;;;;;9.63;8.83;;;17.20;99.90;;;;;;5010559;28;20208;-66
2021/07/11 02:16:36;;;;;;;11.10;10.20;;;17.30;99.90;;;;;;4991481;28;20656;-65
2021/07/11 02:19:06;;;;;;;10.73;9.83;;;17.20;99.90;;;;;;5022582;28;20616;-65
2021/07/11 02:21:32;;;;;;;11.17;10.17;;;17.20;99.90;;;;;;5017685;28;20628;-65
2021/07/11 02:24:03;;;;;;;9.77;8.97;;;17.20;99.90;;;;;;5011165;28;21166;-65
2021/07/11 02:26:31;;;;;;;11.10;10.17;;;17.20;99.90;;;;;;5020711;28;20636;-66
2021/07/11 02:29:01;;;;;;;10.00;9.27;;;17.30;99.90;;;;;;4992110;28;20592;-65
2021/07/11 02:31:36;;;;;;;10.33;9.57;;;17.30;99.90;;;;;;5010490;28;20722;-66
2021/07/11 02:34:04;;;;;;;11.03;10.13;;;17.30;99.90;;;;;;5009942;28;21161;-66
2021/07/11 02:36:31;;;;;;;11.23;10.23;;;17.20;99.90;;;;;;5024763;28;20643;-66
2021/07/11 02:39:06;;;;;;;9.47;8.67;;;17.30;99.90;;;;;;5028633;28;21100;-65
2021/07/11 02:41:33;;;;;;;11.00;10.10;;;17.20;99.90;;;;;;5029246;28;20756;-66
2021/07/11 02:44:13;;;;;;;10.17;9.37;;;17.30;99.90;;;;;;5011743;28;20619;-65
2021/07/11 02:46:49;;;;;;;10.93;9.93;;;17.30;99.90;;;;;;5009770;28;20679;-65
2021/07/11 02:49:24;;;;;;;11.60;10.50;;;17.30;99.90;;;;;;5009422;28;20569;-66
2021/07/11 02:51:53;;;;;;;10.13;9.23;;;17.30;99.90;;;;;;5023979;28;21231;-65
2021/07/11 02:54:25;;;;;;;8.97;8.27;;;17.30;99.90;;;;;;5028153;28;20657;-65
2021/07/11 02:57:00;;;;;;;9.80;9.00;;;17.40;99.90;;;;;;5028906;28;20701;-67
2021/07/11 02:59:26;;;;;;;9.90;9.03;;;17.30;99.90;;;;;;5029357;28;20569;-67
2021/07/11 03:01:53;;;;;;;9.57;8.80;;;17.30;99.90;;;;;;5016627;28;20644;-67
2021/07/11 03:04:20;;;;;;;9.50;8.80;;;17.30;99.90;;;;;;5009386;28;20588;-66
2021/07/11 03:06:46;;;;;;;9.67;8.87;;;17.40;99.90;;;;;;5027174;28;20949;-66
2021/07/11 03:09:12;;;;;;;9.20;8.40;;;17.40;99.90;;;;;;5013529;28;20596;-67
2021/07/11 03:11:39;;;;;;;9.53;8.73;;;17.40;99.90;;;;;;5007686;28;20213;-67
2021/07/11 03:14:10;;;;;;;8.47;7.77;;;17.40;99.90;;;;;;5011237;28;20192;-66
2021/07/11 03:16:40;;;;;;;8.77;8.07;;;17.40;99.90;;;;;;5010806;28;20644;-65
2021/07/11 03:19:06;;;;;;;8.90;8.20;;;17.40;99.90;;;;;;5017726;28;20759;-66
2021/07/11 03:21:35;;;;;;;9.07;8.37;;;17.40;99.90;;;;;;5016736;28;20969;-66
2021/07/11 03:24:02;;;;;;;8.73;8.00;;;17.40;99.90;;;;;;5028674;28;20603;-66
2021/07/11 03:26:29;;;;;;;9.57;8.83;;;17.50;99.90;;;;;;5028823;28;20671;-66
2021/07/11 03:28:55;;;;;;;9.40;8.70;;;17.40;99.90;;;;;;5017307;28;20619;-66
2021/07/11 03:31:23;;;;;;;9.97;9.20;;;17.40;99.90;;;;;;5032380;28;20622;-66
2021/07/11 03:33:57;;;;;;;9.30;8.60;;;17.40;99.90;;;;;;5032649;28;20180;-65
2021/07/11 03:36:25;;;;;;;10.27;9.27;;;17.40;99.90;;;;;;5000083;28;20659;-66
2021/07/11 03:38:56;;;;;;;9.57;8.77;;;17.50;99.90;;;;;;5012022;28;20624;-66
2021/07/11 03:41:29;;;;;;;9.57;8.87;;;17.40;99.90;;;;;;5012601;28;20597;-66
2021/07/11 03:43:58;;;;;;;8.73;8.03;;;17.40;99.90;;;;;;5012779;28;20540;-65
2021/07/11 03:46:28;;;;;;;9.90;9.00;;;17.50;99.90;;;;;;5018595;28;20955;-65
2021/07/11 03:48:58;;;;;;;10.80;8.60;;;17.50;99.90;;;;;;5031455;28;20792;-66
2021/07/11 03:51:35;;;;;;;9.10;8.30;;;17.50;99.90;;;;;;5057530;22;21232;-64
2021/07/11 03:54:02;;;;;;;9.13;8.43;;;17.50;99.90;;;;;;5046829;28;20598;-66
2021/07/11 03:56:39;;;;;;;9.10;8.40;;;17.50;99.90;;;;;;5053940;28;20655;-64
2021/07/11 03:59:08;;;;;;;9.27;8.47;;;17.50;99.90;;;;;;5053535;28;20535;-66
2021/07/11 04:01:38;;;;;;;9.57;8.70;;;17.50;99.90;;;;;;5052239;28;21204;-65
2021/07/11 04:04:08;;;;;;;9.07;8.30;;;17.60;99.90;;;;;;5053383;28;20630;-64
2021/07/11 04:06:36;;;;;;;8.23;7.53;;;17.60;99.90;;;;;;5052960;28;20594;-67
2021/07/11 04:09:06;;;;;;;8.80;8.10;;;17.60;99.90;;;;;;5053123;28;20762;-64
2021/07/11 04:11:37;;;;;;;9.73;8.93;;;17.60;99.90;;;;;;5052214;28;20646;-64
2021/07/11 04:14:03;;;;;;;9.23;8.50;;;17.70;99.90;;;;;;5053459;28;20574;-64
2021/07/11 04:16:34;;;;;;;8.70;8.00;;;17.70;99.90;;;;;;5053012;28;20631;-64
2021/07/11 04:19:01;;;;;;;9.00;8.20;;;17.70;99.90;;;;;;5051759;28;20611;-64
2021/07/11 04:21:28;;;;;;;8.83;8.10;;;17.70;99.90;;;;;;5053684;28;20633;-65
2021/07/11 04:23:57;;;;;;;8.90;8.00;;;17.70;99.90;;;;;;5064976;28;20665;-66
2021/07/11 04:26:26;;;;;;;10.10;9.30;;;17.80;99.90;;;;;;5072806;28;20577;-66
2021/07/11 04:28:55;;;;;;;8.43;7.73;;;17.80;99.90;;;;;;5065046;28;20613;-67
2021/07/11 04:31:21;;;;;;;10.57;9.67;;;17.80;99.90;;;;;;5051118;28;20622;-64
2021/07/11 04:33:47;;;;;;;8.50;7.90;;;17.80;99.90;;;;;;5052889;28;20673;-64
2021/07/11 04:36:13;;;;;;;9.80;9.00;;;17.90;99.90;;;;;;5054434;28;20729;-64
2021/07/11 04:38:41;;;;;;;9.47;8.30;;;17.90;99.90;;;;;;5050440;28;20238;-64
2021/07/11 04:41:09;;;;;;;8.70;8.00;;;17.90;99.90;;;;;;5053451;28;20200;-67
2021/07/11 04:43:36;;;;;;;9.13;8.33;;;18.00;99.90;;;;;;5051136;28;20615;-64
2021/07/11 04:46:01;;;;;;;10.33;9.43;;;18.00;99.90;;;;;;5048170;28;20623;-64
2021/07/11 04:48:30;;;;;;;7.97;7.37;;;18.00;99.90;;;;;;5044800;28;20583;-65
2021/07/11 04:50:55;;;;;;;8.83;8.03;;;18.10;99.90;;;;;;5052028;28;20241;-65
2021/07/11 04:53:21;;;;;;;11.43;8.07;;;18.10;99.90;;;;;;5051962;28;20606;-65
2021/07/11 04:55:48;;;;;;;8.77;8.07;;;18.10;99.90;;;;;;5050498;28;20270;-65
2021/07/11 04:58:19;;;;;;;8.20;7.50;;;18.20;99.90;;;;;;5050472;28;20176;-65
2021/07/11 05:00:47;;;;;;;8.90;8.10;;;18.20;99.90;;;;;;5051955;28;20618;-65
2021/07/11 05:03:23;;;;;;;8.83;8.03;;;18.30;99.90;;;;;;5050987;28;21177;-65
2021/07/11 05:05:48;;;;;;;8.97;8.17;;;18.30;99.90;;;;;;5051326;28;20617;-65
2021/07/11 05:08:14;;;;;;;8.57;7.77;;;18.30;99.90;;;;;;5047568;28;20622;-65
2021/07/11 05:10:42;;;;;;;7.80;7.20;;;18.40;99.90;;;;;;5051749;28;20196;-65
2021/07/11 05:13:07;;;;;;;8.87;8.10;;;18.40;99.90;;;;;;5037390;28;20193;-65
2021/07/11 05:15:33;;;;;;;8.57;7.87;;;18.40;99.90;;;;;;5047218;28;20647;-65
2021/07/11 05:18:03;;;;;;;8.43;7.77;;;18.50;99.90;;;;;;5039963;28;20184;-64
2021/07/11 05:20:29;;;;;;;8.50;7.83;;;18.50;99.90;;;;;;5051600;28;20647;-65
2021/07/11 05:22:54;;;;;;;9.23;8.33;;;18.60;99.90;;;;;;5051540;28;20646;-65
2021/07/11 05:25:20;;;;;;;8.37;7.70;;;18.60;99.90;;;;;;5050391;28;20196;-65
2021/07/11 05:27:46;;;;;;;8.50;7.80;;;18.70;99.90;;;;;;5051180;28;20203;-64
2021/07/11 05:30:12;;;;;;;8.57;7.87;;;18.70;99.90;;;;;;5050195;28;20244;-65
2021/07/11 05:32:43;;;;;;;8.10;7.50;;;18.80;99.90;;;;;;5051406;28;20684;-65
2021/07/11 05:35:09;;;;;;;7.93;7.33;;;18.80;99.90;;;;;;5049888;28;21250;-65
2021/07/11 05:37:34;;;;;;;8.90;8.10;;;18.80;99.90;;;;;;5050786;28;20920;-65
2021/07/11 05:40:04;;;;;;;8.40;7.63;;;18.90;99.90;;;;;;5028984;28;20630;-65
2021/07/11 05:42:30;;;;;;;8.73;7.97;;;19.00;99.90;;;;;;5046550;28;20195;-65
2021/07/11 05:44:55;;;;;;;9.70;8.20;;;19.10;99.90;;;;;;5050653;28;20603;-65
2021/07/11 05:47:21;;;;;;;8.60;7.93;;;19.10;99.90;;;;;;5051021;28;20192;-65
2021/07/11 05:49:46;;;;;;;8.80;8.00;;;19.10;99.90;;;;;;5050570;28;20183;-65
2021/07/11 05:52:12;;;;;;;8.50;7.77;;;19.10;99.90;;;;;;5048965;28;20223;-65
2021/07/11 05:54:37;;;;;;;8.53;7.83;;;19.20;99.90;;;;;;5050470;28;20587;-65
2021/07/11 05:57:03;;;;;;;8.83;8.03;;;19.30;99.90;;;;;;5050616;28;20257;-64
2021/07/11 05:59:28;;;;;;;8.90;8.17;;;19.30;99.90;;;;;;5050752;28;20176;-65
2021/07/11 06:01:54;;;;;;;8.33;7.60;;;19.30;99.90;;;;;;5049385;28;20208;-64
2021/07/11 06:04:20;;;;;;;8.00;7.30;;;19.30;99.90;;;;;;5027419;28;20700;-65
2021/07/11 06:06:45;;;;;;;8.70;7.90;;;19.30;99.90;;;;;;5038524;28;21846;-65
2021/07/11 06:09:11;;;;;;;8.77;8.07;;;19.40;99.90;;;;;;5049718;28;20199;-65
2021/07/11 06:11:36;;;;;;;9.30;8.50;;;19.40;99.90;;;;;;5045762;28;20212;-65
2021/07/11 06:14:02;;;;;;;9.03;8.23;;;19.40;99.90;;;;;;5052371;28;20274;-65
2021/07/11 06:16:27;;;;;;;8.43;7.73;;;19.40;99.90;;;;;;5066648;28;20243;-65
2021/07/11 06:18:53;;;;;;;8.40;7.80;;;19.40;99.90;;;;;;5063007;28;20188;-65
2021/07/11 06:21:18;;;;;;;8.70;8.10;;;19.40;99.90;;;;;;5050017;28;20232;-65
2021/07/11 06:23:44;;;;;;;8.27;7.60;;;19.40;99.90;;;;;;5059111;28;20176;-65
2021/07/11 06:26:09;;;;;;;7.87;7.27;;;19.50;99.90;;;;;;5057453;28;20191;-65
2021/07/11 06:28:35;;;;;;;9.20;8.50;;;19.50;99.90;;;;;;5048803;28;20196;-65
2021/07/11 06:31:00;;;;;;;8.87;8.27;;;19.60;99.90;;;;;;5049733;28;20222;-65
2021/07/11 06:33:26;;;;;;;8.70;8.00;;;19.60;99.90;;;;;;5049417;28;20198;-65
2021/07/11 06:35:51;;;;;;;8.70;8.10;;;19.70;99.90;;;;;;5049851;28;20207;-65
2021/07/11 06:38:17;;;;;;;9.53;8.70;;;19.80;99.90;;;;;;5047375;28;20227;-65
2021/07/11 06:40:43;;;;;;;9.30;8.50;;;19.80;99.90;;;;;;5049978;28;20204;-65
2021/07/11 06:43:08;;;;;;;8.90;8.10;;;19.80;99.90;;;;;;5049790;28;20180;-65
2021/07/11 06:45:34;;;;;;;9.17;8.47;;;19.80;99.90;;;;;;5049024;28;20663;-66
2021/07/11 06:47:59;;;;;;;9.10;8.30;;;19.90;99.90;;;;;;5049755;28;20637;-65
2021/07/11 06:50:25;;;;;;;8.97;8.27;;;20.00;99.90;;;;;;5050045;28;20212;-66
2021/07/11 06:52:51;;;;;;;8.60;7.87;;;20.00;99.90;;;;;;5049075;28;20192;-66
2021/07/11 06:55:17;;;;;;;9.10;8.40;;;20.00;99.90;;;;;;5049214;28;20680;-65
2021/07/11 06:57:46;;;;;;;8.07;7.47;;;20.10;99.90;;;;;;5049335;28;20983;-65
2021/07/11 07:00:13;;;;;;;9.23;8.53;;;20.20;99.90;;;;;;5049861;28;20630;-65
2021/07/11 07:02:40;;;;;;;8.63;7.93;;;20.40;99.90;;;;;;5051283;28;20703;-65
2021/07/11 07:05:07;;;;;;;8.73;8.13;;;20.40;99.90;;;;;;5045273;28;21212;-65
2021/07/11 07:07:35;;;;;;;8.30;7.70;;;20.50;99.90;;;;;;5053095;28;20634;-65
2021/07/11 07:10:09;;;;;;;8.43;7.43;;;20.60;99.90;;;;;;5051542;28;20606;-65
2021/07/11 07:12:35;;;;;;;8.83;8.10;;;20.70;99.90;;;;;;5045447;28;20676;-65
2021/07/11 07:15:00;;;;;;;8.40;7.80;;;20.80;99.90;;;;;;5050362;28;20932;-65
2021/07/11 07:17:26;;;;;;;8.73;8.13;;;20.90;99.90;;;;;;5053094;28;20195;-65
2021/07/11 07:19:52;;;;;;;8.53;7.93;;;20.90;99.90;;;;;;5052245;28;20211;-65
2021/07/11 07:22:17;;;;;;;8.23;7.63;;;21.10;99.90;;;;;;5053559;28;20184;-65
2021/07/11 07:24:43;;;;;;;8.43;7.73;;;21.10;99.90;;;;;;5065627;28;20188;-66
2021/07/11 07:27:08;;;;;;;8.13;7.43;;;21.20;99.90;;;;;;5057576;28;20196;-65
2021/07/11 07:29:34;;;;;;;8.77;8.07;;;21.30;99.90;;;;;;5051052;28;20206;-65
2021/07/11 07:32:00;;;;;;;7.93;7.43;;;21.40;99.90;;;;;;5052321;28;20224;-65
2021/07/11 07:34:28;;;;;;;8.17;7.57;;;21.50;99.90;;;;;;5051501;28;20253;-65
2021/07/11 07:36:55;;;;;;;8.23;7.63;;;21.50;99.90;;;;;;5050381;28;20200;-65
2021/07/11 07:39:20;;;;;;;8.47;7.80;;;21.50;99.90;;;;;;5050860;28;21150;-66
2021/07/11 07:41:46;;;;;;;8.47;7.77;;;21.70;99.90;;;;;;5052135;28;20619;-65
2021/07/11 07:44:11;;;;;;;7.83;7.33;;;21.80;99.90;;;;;;5051527;28;20203;-66
2021/07/11 07:46:37;;;;;;;8.23;7.70;;;21.80;99.90;;;;;;5050157;28;20686;-66
2021/07/11 07:49:02;;;;;;;8.20;7.60;;;21.80;99.90;;;;;;5051386;28;20242;-66
2021/07/11 07:51:28;;;;;;;7.50;6.90;;;22.00;99.90;;;;;;5051915;28;20722;-65
2021/07/11 07:53:54;;;;;;;8.50;7.80;;;21.90;99.90;;;;;;5051740;28;20620;-65
2021/07/11 07:56:19;;;;;;;7.73;7.13;;;22.00;99.90;;;;;;5058945;28;20290;-67
2021/07/11 07:58:45;;;;;;;7.97;7.37;;;22.10;99.90;;;;;;5055069;28;20197;-65
2021/07/11 08:01:10;;;;;;;7.60;7.00;;;22.20;99.90;;;;;;5051436;28;20196;-65
2021/07/11 08:03:38;;;;;;;8.60;7.90;;;22.30;99.90;;;;;;5050046;28;20732;-64
2021/07/11 08:06:04;;;;;;;7.80;7.20;;;22.30;99.90;;;;;;5040773;28;20500;-64
2021/07/11 08:08:29;;;;;;;8.23;7.53;;;22.50;99.90;;;;;;5050395;28;20605;-66
2021/07/11 08:10:55;;;;;;;8.00;7.37;;;22.60;99.90;;;;;;5049577;28;20285;-65
2021/07/11 08:13:20;;;;;;;7.90;7.40;;;22.70;99.90;;;;;;5045627;28;20673;-66
2021/07/11 08:15:47;;;;;;;7.43;6.83;;;22.80;99.90;;;;;;5050363;28;20737;-65
2021/07/11 08:18:13;;;;;;;7.87;7.27;;;22.80;99.90;;;;;;5050552;28;20184;-66
2021/07/11 08:20:38;;;;;;;7.80;7.20;;;22.90;99.90;;;;;;5050986;28;20939;-66
2021/07/11 08:23:04;;;;;;;7.97;7.27;;;22.90;99.90;;;;;;5040658;28;20545;-65
2021/07/11 08:25:30;;;;;;;7.80;7.30;;;23.00;99.90;;;;;;5050956;28;20360;-65
2021/07/11 08:27:57;;;;;;;8.23;7.63;;;23.00;99.90;;;;;;5051266;28;20207;-66
2021/07/11 08:30:23;;;;;;;8.07;7.13;;;23.10;99.90;;;;;;5051100;28;20345;-66
2021/07/11 08:32:49;;;;;;;7.10;6.50;;;23.30;99.90;;;;;;5050015;28;20717;-65
2021/07/11 08:35:15;;;;;;;7.77;7.10;;;23.30;99.90;;;;;;5048274;28;20188;-66
2021/07/11 08:37:41;;;;;;;7.70;7.00;;;23.40;99.90;;;;;;5049818;28;20598;-65
2021/07/11 08:40:08;;;;;;;7.57;6.97;;;23.50;99.90;;;;;;5049290;28;20607;-66
2021/07/11 08:42:35;;;;;;;7.43;6.83;;;23.60;99.90;;;;;;5051110;28;20173;-65
2021/07/11 08:45:01;;;;;;;7.47;6.80;;;23.60;99.90;;;;;;5050159;28;20590;-70
2021/07/11 08:47:27;;;;;;;7.07;6.47;;;23.70;99.90;;;;;;5048896;28;20618;-65
2021/07/11 08:49:53;;;;;;;7.67;7.07;;;23.90;99.90;;;;;;5051125;28;20610;-66
2021/07/11 08:52:19;;;;;;;8.07;7.27;;;23.90;99.90;;;;;;5056909;28;20218;-65
2021/07/11 08:54:44;;;;;;;6.57;6.17;;;23.90;99.90;;;;;;5050479;28;20665;-66
2021/07/11 08:57:11;;;;;;;7.10;6.60;;;24.00;99.90;;;;;;5048188;28;20212;-65
2021/07/11 08:59:42;;;;;;;7.17;6.67;;;24.10;99.90;;;;;;5048498;28;20478;-66
2021/07/11 09:02:09;;;;;;;9.03;6.40;;;24.10;99.90;;;;;;5049821;28;20650;-65
2021/07/11 09:04:38;;;;;;;7.13;6.63;;;24.10;99.90;;;;;;5038669;28;20643;-65
2021/07/11 09:07:05;;;;;;;7.33;6.80;;;24.10;99.90;;;;;;5057545;28;20610;-65
2021/07/11 09:09:33;;;;;;;7.03;6.57;;;24.10;99.90;;;;;;5049687;28;20644;-65
2021/07/11 09:12:06;;;;;;;6.83;6.33;;;24.10;99.90;;;;;;5058791;28;20726;-66
2021/07/11 09:14:37;;;;;;;6.43;5.93;;;24.10;99.90;;;;;;5058969;28;20633;-66
2021/07/11 09:17:07;;;;;;;7.07;6.33;;;24.20;99.90;;;;;;5051395;28;20721;-65
2021/07/11 09:19:39;;;;;;;6.50;6.10;;;24.30;99.90;;;;;;5050619;28;20676;-65
2021/07/11 09:22:13;;;;;;;7.37;6.80;;;24.40;99.90;;;;;;5049110;28;21215;-65
2021/07/11 09:24:49;;;;;;;6.70;6.30;;;24.40;99.90;;;;;;5050024;28;20583;-65
2021/07/11 09:27:18;;;;;;;6.40;5.90;;;24.50;99.90;;;;;;5049661;28;20625;-65
2021/07/11 09:29:45;;;;;;;6.70;6.30;;;24.50;99.90;;;;;;5050450;28;20598;-65
2021/07/11 09:32:26;;;;;;;6.83;6.23;;;24.60;99.90;;;;;;5040214;28;20658;-65
2021/07/11 09:34:52;;;;;;;6.87;6.33;;;24.60;99.90;;;;;;5049742;28;20594;-65
2021/07/11 09:37:18;;;;;;;6.83;6.00;;;24.60;99.90;;;;;;5049948;28;21514;-64
2021/07/11 09:39:46;;;;;;;6.80;6.30;;;24.70;99.90;;;;;;5048575;28;20184;-65
2021/07/11 09:42:22;;;;;;;6.80;6.20;;;24.80;99.90;;;;;;5049650;28;20626;-65
2021/07/11 09:44:48;;;;;;;6.83;6.33;;;25.00;99.90;;;;;;5049498;28;20602;-65
2021/07/11 09:47:15;;;;;;;7.33;6.70;;;25.00;99.90;;;;;;5049013;28;20967;-65
2021/07/11 09:49:41;;;;;;;7.07;6.53;;;25.10;99.90;;;;;;5050360;28;20192;-65
2021/07/11 09:52:07;;;;;;;6.60;6.10;;;25.10;99.90;;;;;;5045997;23;20694;-68
2021/07/11 09:54:34;;;;;;;9.70;8.83;;;25.20;99.90;;;;;;5030323;28;20181;-67
2021/07/11 09:57:08;;;;;;;7.57;6.97;;;25.20;99.90;;;;;;5031487;28;20670;-67
2021/07/11 09:59:34;;;;;;;7.37;6.87;;;25.30;99.90;;;;;;5031374;28;20624;-65
2021/07/11 10:01:59;;;;;;;7.50;7.00;;;25.40;99.90;;;;;;5030396;28;21106;-67
2021/07/11 10:04:25;;;;;;;7.70;7.00;;;25.40;99.90;;;;;;5031667;28;20212;-67
2021/07/11 10:06:51;;;;;;;7.70;7.10;;;25.50;99.90;;;;;;5031344;28;20193;-68
2021/07/11 10:09:16;;;;;;;8.03;7.43;;;25.60;99.90;;;;;;5031473;28;20691;-66
2021/07/11 10:11:42;;;;;;;7.80;7.20;;;25.70;99.90;;;;;;5030185;28;20216;-65
2021/07/11 10:14:07;;;;;;;7.83;7.33;;;25.80;99.90;;;;;;5031472;28;20247;-66
2021/07/11 10:16:36;;;;;;;7.93;7.33;;;25.80;99.90;;;;;;5031021;28;20212;-66
2021/07/11 10:19:07;;;;;;;7.17;6.67;;;25.90;99.90;;;;;;5030423;28;20192;-66
2021/07/11 10:21:35;;;;;;;7.50;6.90;;;26.00;99.90;;;;;;5030085;28;20941;-65
2021/07/11 10:24:01;;;;;;;7.70;7.20;;;26.10;99.90;;;;;;5031569;28;21030;-66
2021/07/11 10:26:38;;;;;;;8.50;7.90;;;26.10;99.90;;;;;;5030996;28;20619;-65
2021/07/11 10:29:16;;;;;;;7.67;7.13;;;26.20;99.90;;;;;;5045532;28;20617;-67
2021/07/11 10:31:45;;;;;;;8.10;7.53;;;26.30;99.90;;;;;;5029723;28;20670;-66
2021/07/11 10:34:11;;;;;;;8.03;7.53;;;26.40;99.90;;;;;;5030734;28;20646;-67
2021/07/11 10:36:41;;;;;;;7.63;7.03;;;26.50;99.90;;;;;;5025998;28;20644;-67
2021/07/11 10:39:12;;;;;;;7.93;7.33;;;26.50;99.90;;;;;;5025979;28;20623;-65
2021/07/11 10:41:51;;;;;;;7.73;7.23;;;26.70;99.90;;;;;;5046389;28;20647;-66
2021/07/11 10:44:24;;;;;;;7.43;6.93;;;26.70;99.90;;;;;;5031041;28;21293;-66
2021/07/11 10:46:54;;;;;;;7.87;7.37;;;26.70;99.90;;;;;;5046446;28;20692;-66
2021/07/11 10:49:24;;;;;;;8.57;7.97;;;26.70;99.90;;;;;;5029631;28;20638;-67
2021/07/11 10:51:51;;;;;;;8.27;7.67;;;26.80;99.90;;;;;;5029146;28;20655;-66
2021/07/11 10:54:31;;;;;;;7.77;7.27;;;26.80;99.90;;;;;;5026742;28;20603;-66
2021/07/11 10:57:05;;;;;;;7.60;7.10;;;26.90;99.90;;;;;;5029856;28;20646;-67
2021/07/11 10:59:36;;;;;;;8.13;7.53;;;26.90;99.90;;;;;;5031051;28;20571;-66
2021/07/11 11:02:26;;;;;;;8.10;7.60;;;27.00;99.90;;;;;;5030730;28;20639;-66
2021/07/11 11:05:00;;;;;;;8.57;7.97;;;26.90;99.90;;;;;;5029523;28;20862;-66
2021/07/11 11:07:37;;;;;;;8.30;7.70;;;26.90;99.90;;;;;;5030606;28;21040;-66
2021/07/11 11:10:03;;;;;;;7.63;7.13;;;26.90;99.90;;;;;;5030369;28;20642;-66
2021/07/11 11:12:29;;;;;;;8.23;7.73;;;27.00;99.90;;;;;;5030980;28;20660;-67
2021/07/11 11:15:01;;;;;;;8.60;8.00;;;27.10;99.90;;;;;;5029620;28;20728;-66
2021/07/11 11:17:26;;;;;;;8.30;7.70;;;27.10;99.90;;;;;;5028791;28;20661;-67
2021/07/11 11:19:52;;;;;;;8.80;8.20;;;27.10;99.90;;;;;;5030340;28;20687;-65
2021/07/11 11:22:17;;;;;;;8.13;7.63;;;27.20;99.90;;;;;;5030809;28;20224;-66
2021/07/11 11:24:43;;;;;;;8.70;8.10;;;27.30;99.90;;;;;;5029809;28;20607;-66
2021/07/11 11:27:08;;;;;;;8.23;7.70;;;27.40;99.90;;;;;;5030627;28;20197;-66
2021/07/11 11:29:34;;;;;;;8.67;8.07;;;27.60;99.90;;;;;;5029229;28;20196;-66
2021/07/11 11:32:11;;;;;;;8.53;8.03;;;27.60;99.90;;;;;;5030595;28;20240;-66
2021/07/11 11:34:37;;;;;;;8.17;7.67;;;27.60;99.90;;;;;;5025227;28;20241;-67
2021/07/11 11:37:04;;;;;;;8.60;8.00;;;27.50;99.90;;;;;;5027249;28;20666;-67
2021/07/11 11:39:31;;;;;;;9.13;8.53;;;27.50;99.90;;;;;;5030308;28;20661;-66
2021/07/11 11:41:58;;;;;;;8.97;8.37;;;27.50;99.90;;;;;;5027138;28;20663;-66
2021/07/11 11:44:25;;;;;;;8.60;8.00;;;27.50;99.90;;;;;;5030466;28;20603;-66
2021/07/11 11:46:56;;;;;;;8.20;7.70;;;27.50;99.90;;;;;;5030447;28;20650;-66
2021/07/11 11:49:25;;;;;;;8.20;7.60;;;27.40;99.90;;;;;;5046784;28;20657;-66
2021/07/11 11:51:55;;;;;;;9.20;8.60;;;27.50;99.90;;;;;;5031250;28;21226;-65
2021/07/11 11:54:37;;;;;;;8.23;7.60;;;27.50;99.90;;;;;;5023175;28;20673;-66
2021/07/11 11:57:06;;;;;;;8.33;7.83;;;27.60;99.90;;;;;;5033741;28;20635;-67
2021/07/11 11:59:32;;;;;;;9.67;9.07;;;27.60;99.90;;;;;;5033308;28;21162;-66
2021/07/11 12:02:00;;;;;;;8.37;7.80;;;27.70;99.90;;;;;;5033388;28;20615;-66
2021/07/11 12:04:28;;;;;;;9.17;8.47;;;27.80;99.90;;;;;;5033890;28;21019;-65
2021/07/11 12:06:54;;;;;;;9.37;8.57;;;27.90;99.90;;;;;;5033293;28;20646;-66
2021/07/11 12:09:27;;;;;;;8.23;7.73;;;27.90;99.90;;;;;;5033362;28;21157;-66
2021/07/11 12:12:03;;;;;;;7.77;7.27;;;27.90;99.90;;;;;;5032223;28;20688;-66
2021/07/11 12:14:30;;;;;;;9.23;8.50;;;28.00;99.90;;;;;;5033247;28;20946;-66
2021/07/11 12:16:58;;;;;;;8.00;7.50;;;28.00;99.90;;;;;;5032289;28;21148;-66
2021/07/11 12:19:25;;;;;;;9.67;8.77;;;28.10;99.90;;;;;;5033074;28;20592;-67
2021/07/11 12:21:55;;;;;;;8.87;8.27;;;28.20;99.90;;;;;;5033310;28;20622;-66
2021/07/11 12:24:26;;;;;;;8.10;7.60;;;28.30;99.90;;;;;;5048015;28;20620;-66
2021/07/11 12:27:02;;;;;;;8.03;7.53;;;28.40;99.90;;;;;;5033444;28;20588;-66
2021/07/11 12:29:32;;;;;;;7.50;7.00;;;28.40;99.90;;;;;;5048396;28;21089;-66
2021/07/11 12:32:00;;;;;;;7.93;7.43;;;28.60;99.90;;;;;;5033148;28;20666;-67
2021/07/11 12:34:29;;;;;;;8.43;7.90;;;28.70;99.90;;;;;;5031785;28;20642;-66
2021/07/11 12:37:15;;;;;;;7.90;7.50;;;28.70;99.90;;;;;;5048553;28;20655;-66
2021/07/11 12:39:43;;;;;;;9.00;8.30;;;28.80;99.90;;;;;;5032943;28;20607;-66
2021/07/11 12:42:17;;;;;;;8.40;7.90;;;28.70;99.90;;;;;;5048383;28;20647;-66
2021/07/11 12:44:43;;;;;;;8.00;7.50;;;28.80;99.90;;;;;;5032314;28;20647;-67
2021/07/11 12:47:17;;;;;;;8.60;8.00;;;28.70;99.90;;;;;;5047452;28;20658;-66
2021/07/11 12:49:58;;;;;;;8.40;7.90;;;28.70;99.90;;;;;;5032831;28;20235;-66